createdAt,value
2022-12-13T00:01:39.626Z,-8.70
2022-12-13T00:04:08.052Z,-8.70
2022-12-13T00:06:36.794Z,-8.80
2022-12-13T00:09:05.402Z,-8.80
2022-12-13T00:11:33.475Z,-8.80
2022-12-13T00:14:01.938Z,-8.80
2022-12-13T00:16:29.219Z,-8.80
2022-12-13T00:18:59.057Z,-8.70
2022-12-13T00:21:31.700Z,-8.80
2022-12-13T00:24:00.323Z,-8.80
2022-12-13T00:26:30.158Z,-8.80
2022-12-13T00:29:00.450Z,-8.80
2022-12-13T00:31:56.747Z,-8.80
2022-12-13T00:34:15.104Z,-8.80
2022-12-13T00:36:41.959Z,-8.90
2022-12-13T00:39:08.837Z,-8.90
2022-12-13T00:41:36.390Z,-8.90
2022-12-13T00:44:04.845Z,-8.90
2022-12-13T00:46:32.830Z,-9.00
2022-12-13T00:49:01.405Z,-9.00
2022-12-13T00:51:30.924Z,-9.10
2022-12-13T00:53:59.296Z,-9.10
2022-12-13T00:56:29.014Z,-9.10
2022-12-13T00:58:56.882Z,-9.10
2022-12-13T01:01:27.744Z,-9.10
2022-12-13T01:03:56.753Z,-9.20
2022-12-13T01:06:46.520Z,-9.10
2022-12-13T01:09:22.874Z,-9.10
2022-12-13T01:11:50.176Z,-9.20
2022-12-13T01:14:18.447Z,-9.20
2022-12-13T01:16:45.704Z,-9.20
2022-12-13T01:19:12.693Z,-9.30
2022-12-13T01:21:39.711Z,-9.30
2022-12-13T01:24:08.036Z,-9.40
2022-12-13T01:26:35.020Z,-9.40
2022-12-13T01:29:02.301Z,-9.50
2022-12-13T01:31:29.352Z,-9.50
2022-12-13T01:33:56.440Z,-9.50
2022-12-13T01:36:27.658Z,-9.60
2022-12-13T01:38:58.127Z,-9.60
2022-12-13T01:41:28.884Z,-9.70
2022-12-13T01:44:01.227Z,-9.80
2022-12-13T01:46:29.719Z,-9.80
2022-12-13T01:49:00.875Z,-9.90
2022-12-13T01:51:50.294Z,-9.90
2022-12-13T01:54:21.840Z,-10.00
2022-12-13T01:57:00.761Z,-10.00
2022-12-13T01:59:28.543Z,-10.10
2022-12-13T02:02:00.827Z,-10.10
2022-12-13T02:04:44.287Z,-10.10
2022-12-13T02:07:23.076Z,-10.10
2022-12-13T02:09:56.656Z,-10.20
2022-12-13T02:12:30.906Z,-10.20
2022-12-13T02:15:05.935Z,-10.20
2022-12-13T02:17:45.830Z,-10.30
2022-12-13T02:20:24.826Z,-10.30
2022-12-13T02:23:15.012Z,-10.30
2022-12-13T02:26:03.739Z,-10.40
2022-12-13T02:28:36.646Z,-10.40
2022-12-13T02:31:17.807Z,-10.50
2022-12-13T02:34:00.966Z,-10.50
2022-12-13T02:36:57.648Z,-10.50
2022-12-13T02:39:46.414Z,-10.60
2022-12-13T02:42:29.538Z,-10.60
2022-12-13T02:45:20.250Z,-10.70
2022-12-13T02:47:50.856Z,-10.60
2022-12-13T02:50:18.751Z,-10.70
2022-12-13T02:52:46.850Z,-10.60
2022-12-13T02:55:16.992Z,-10.60
2022-12-13T02:57:46.508Z,-10.60
2022-12-13T03:00:20.220Z,-10.60
2022-12-13T03:03:20.243Z,-10.60
2022-12-13T03:06:18.150Z,-10.50
2022-12-13T03:08:51.195Z,-10.50
2022-12-13T03:11:21.921Z,-10.50
2022-12-13T03:13:57.581Z,-10.50
2022-12-13T03:16:36.852Z,-10.50
2022-12-13T03:19:09.306Z,-10.60
2022-12-13T03:21:46.990Z,-10.60
2022-12-13T03:24:17.940Z,-10.60
2022-12-13T03:26:45.558Z,-10.60
2022-12-13T03:29:12.760Z,-10.60
2022-12-13T03:31:39.687Z,-10.70
2022-12-13T03:34:06.796Z,-10.60
2022-12-13T03:36:33.893Z,-10.60
2022-12-13T03:39:00.770Z,-10.50
2022-12-13T03:41:31.813Z,-10.50
2022-12-13T03:44:05.862Z,-10.50
2022-12-13T03:46:33.478Z,-10.40
2022-12-13T03:49:00.539Z,-10.50
2022-12-13T03:51:27.463Z,-10.60
2022-12-13T03:53:54.360Z,-10.70
2022-12-13T03:56:21.194Z,-10.70
2022-12-13T03:58:48.105Z,-10.90
2022-12-13T04:01:17.355Z,-11.00
2022-12-13T04:03:46.670Z,-11.10
2022-12-13T04:06:22.785Z,-11.20
2022-12-13T04:08:51.736Z,-11.30
2022-12-13T04:11:43.016Z,-11.30
2022-12-13T04:14:21.921Z,-11.30
2022-12-13T04:16:52.189Z,-11.40
2022-12-13T04:19:23.169Z,-11.40
2022-12-13T04:21:50.719Z,-11.50
2022-12-13T04:24:17.670Z,-11.60
2022-12-13T04:26:45.412Z,-11.60
2022-12-13T04:29:15.401Z,-11.70
2022-12-13T04:31:42.529Z,-11.70
2022-12-13T04:34:09.481Z,-11.70
2022-12-13T04:36:36.327Z,-11.70
2022-12-13T04:39:22.017Z,-11.70
2022-12-13T04:41:51.759Z,-11.70
2022-12-13T04:44:27.892Z,-11.70
2022-12-13T04:47:01.314Z,-11.70
2022-12-13T04:49:30.143Z,-11.70
2022-12-13T04:52:01.219Z,-11.70
2022-12-13T04:54:36.685Z,-11.70
2022-12-13T04:57:07.264Z,-11.70
2022-12-13T04:59:35.182Z,-11.80
2022-12-13T05:02:02.187Z,-11.80
2022-12-13T05:04:32.873Z,-11.70
2022-12-13T05:07:00.233Z,-11.70
2022-12-13T05:09:27.161Z,-11.80
2022-12-13T05:12:01.662Z,-11.80
2022-12-13T05:14:32.378Z,-11.80
2022-12-13T05:17:02.382Z,-11.80
2022-12-13T05:19:30.963Z,-11.80
2022-12-13T05:22:01.540Z,-11.80
2022-12-13T05:24:29.882Z,-11.80
2022-12-13T05:26:57.786Z,-11.80
2022-12-13T05:29:24.649Z,-11.90
2022-12-13T05:31:51.521Z,-11.90
2022-12-13T05:34:19.228Z,-12.00
2022-12-13T05:36:46.385Z,-12.00
2022-12-13T05:39:28.204Z,-12.00
2022-12-13T05:42:01.776Z,-12.10
2022-12-13T05:44:30.641Z,-12.10
2022-12-13T05:46:57.441Z,-12.10
2022-12-13T05:49:24.625Z,-12.10
2022-12-13T05:51:51.778Z,-12.10
2022-12-13T05:54:18.697Z,-12.10
2022-12-13T05:56:45.549Z,-12.20
2022-12-13T05:59:12.466Z,-12.20
2022-12-13T06:01:43.837Z,-12.20
2022-12-13T06:04:12.447Z,-12.20
2022-12-13T06:06:51.183Z,-12.30
2022-12-13T06:09:18.979Z,-12.30
2022-12-13T06:11:46.000Z,-12.40
2022-12-13T06:14:22.113Z,-12.40
2022-12-13T06:16:53.511Z,-12.40
2022-12-13T06:19:23.742Z,-12.40
2022-12-13T06:21:52.919Z,-12.50
2022-12-13T06:24:21.701Z,-12.50
2022-12-13T06:26:50.364Z,-12.50
2022-12-13T06:29:22.794Z,-12.60
2022-12-13T06:32:02.904Z,-12.50
2022-12-13T06:34:33.419Z,-12.50
2022-12-13T06:37:02.815Z,-12.50
2022-12-13T06:39:32.674Z,-12.50
2022-12-13T06:42:01.850Z,-12.60
2022-12-13T06:44:28.992Z,-12.60
2022-12-13T06:47:12.029Z,-12.60
2022-12-13T06:49:41.819Z,-12.60
2022-12-13T06:52:12.561Z,-12.60
2022-12-13T06:54:39.550Z,-12.60
2022-12-13T06:57:06.599Z,-12.70
2022-12-13T06:59:33.405Z,-12.70
2022-12-13T07:02:03.573Z,-12.70
2022-12-13T07:04:31.988Z,-12.70
2022-12-13T07:07:01.913Z,-12.70
2022-12-13T07:09:33.279Z,-12.60
2022-12-13T07:12:00.571Z,-12.70
2022-12-13T07:14:27.462Z,-12.70
2022-12-13T07:17:01.209Z,-12.70
2022-12-13T07:19:35.193Z,-12.70
2022-12-13T07:22:06.015Z,-12.60
2022-12-13T07:24:34.274Z,-12.70
2022-12-13T07:27:01.890Z,-12.70
2022-12-13T07:29:28.737Z,-12.70
2022-12-13T07:31:55.642Z,-12.70
2022-12-13T07:34:29.500Z,-12.70
2022-12-13T07:36:56.494Z,-12.80
2022-12-13T07:39:28.437Z,-12.80
2022-12-13T07:41:56.064Z,-12.80
2022-12-13T07:44:24.155Z,-12.90
2022-12-13T07:46:51.152Z,-12.90
2022-12-13T07:49:18.294Z,-12.90
2022-12-13T07:51:45.173Z,-12.90
2022-12-13T07:54:12.280Z,-13.00
2022-12-13T07:56:39.119Z,-13.00
2022-12-13T07:59:06.164Z,-13.00
2022-12-13T08:01:36.667Z,-13.00
2022-12-13T08:04:04.938Z,-13.10
2022-12-13T08:06:37.099Z,-13.00
2022-12-13T08:09:04.502Z,-13.00
2022-12-13T08:11:31.571Z,-13.00
2022-12-13T08:13:58.529Z,-13.00
2022-12-13T08:16:26.759Z,-12.90
2022-12-13T08:19:02.884Z,-12.90
2022-12-13T08:24:27.601Z,-12.90
2022-12-13T08:27:00.957Z,-12.80
2022-12-13T08:29:34.837Z,-12.80
2022-12-13T08:32:05.265Z,-12.70
2022-12-13T08:34:32.328Z,-12.70
2022-12-13T08:37:02.801Z,-12.60
2022-12-13T08:39:37.241Z,-12.60
2022-12-13T08:42:14.874Z,-12.40
2022-12-13T08:44:43.042Z,-12.40
2022-12-13T08:47:09.932Z,-12.30
2022-12-13T08:49:36.952Z,-12.20
2022-12-13T08:52:04.142Z,-12.10
2022-12-13T08:54:34.024Z,-12.00
2022-12-13T08:57:02.151Z,-11.90
2022-12-13T08:59:29.635Z,-11.80
2022-12-13T09:02:00.213Z,-11.80
2022-12-13T09:04:32.337Z,-11.70
2022-12-13T09:07:01.736Z,-11.80
2022-12-13T09:09:29.665Z,-11.80
2022-12-13T09:11:59.798Z,-11.80
2022-12-13T09:14:33.872Z,-11.70
2022-12-13T09:17:02.977Z,-11.70
2022-12-13T09:19:37.263Z,-11.70
2022-12-13T09:22:05.373Z,-11.70
2022-12-13T09:24:35.838Z,-11.70
2022-12-13T09:27:09.433Z,-11.70
2022-12-13T09:29:37.720Z,-11.70
2022-12-13T09:32:05.029Z,-11.70
2022-12-13T09:34:33.158Z,-11.70
2022-12-13T09:37:01.198Z,-11.70
2022-12-13T09:39:29.446Z,-11.60
2022-12-13T09:42:01.015Z,-11.70
2022-12-13T09:44:45.201Z,-11.60
2022-12-13T09:47:24.681Z,-11.70
2022-12-13T09:49:53.806Z,-11.60
2022-12-13T09:52:24.699Z,-11.60
2022-12-13T09:54:55.968Z,-11.60
2022-12-13T09:57:32.371Z,-11.60
2022-12-13T10:00:02.651Z,-11.60
2022-12-13T10:02:44.308Z,-11.60
2022-12-13T10:05:22.201Z,-11.60
2022-12-13T10:07:52.517Z,-11.60
2022-12-13T10:10:19.719Z,-11.60
2022-12-13T10:12:52.609Z,-11.60
2022-12-13T10:15:22.149Z,-11.50
2022-12-13T10:17:55.089Z,-11.40
2022-12-13T10:20:28.743Z,-11.40
2022-12-13T10:23:31.353Z,-11.30
2022-12-13T10:26:02.813Z,-11.20
2022-12-13T10:28:33.608Z,-11.10
2022-12-13T10:31:01.586Z,-11.20
2022-12-13T10:33:38.108Z,-11.10
2022-12-13T10:36:13.170Z,-11.10
2022-12-13T10:38:46.234Z,-11.00
2022-12-13T10:41:35.467Z,-11.00
2022-12-13T10:44:11.826Z,-11.00
2022-12-13T10:47:09.186Z,-10.90
2022-12-13T10:49:41.006Z,-10.80
2022-12-13T10:52:31.244Z,-10.80
2022-12-13T10:55:02.573Z,-10.70
2022-12-13T10:57:29.739Z,-10.70
2022-12-13T10:59:56.702Z,-10.70
2022-12-13T11:02:35.778Z,-10.70
2022-12-13T11:05:29.344Z,-10.60
2022-12-13T11:08:12.410Z,-10.40
2022-12-13T11:10:39.525Z,-10.30
2022-12-13T11:13:07.721Z,-10.20
2022-12-13T11:15:38.491Z,-10.10
2022-12-13T11:18:08.574Z,-10.00
2022-12-13T11:20:51.284Z,-9.90
2022-12-13T11:23:47.584Z,-9.90
2022-12-13T11:26:24.592Z,-9.90
2022-12-13T11:28:58.011Z,-9.90
2022-12-13T11:31:46.895Z,-9.80
2022-12-13T11:34:25.867Z,-9.90
2022-12-13T11:36:58.231Z,-9.90
2022-12-13T11:39:40.471Z,-9.90
2022-12-13T11:42:33.474Z,-9.90
2022-12-13T11:45:22.255Z,-10.00
2022-12-13T11:48:14.272Z,-10.10
2022-12-13T11:50:45.885Z,-10.20
2022-12-13T11:53:35.567Z,-10.30
2022-12-13T11:56:25.749Z,-10.30
2022-12-13T11:59:11.307Z,-10.30
2022-12-13T12:01:53.417Z,-10.40
2022-12-13T12:05:01.300Z,-10.40
2022-12-13T12:07:58.344Z,-10.40
2022-12-13T12:11:02.012Z,-10.40
2022-12-13T12:13:51.256Z,-10.50
2022-12-13T12:16:55.333Z,-10.60
2022-12-13T12:19:31.617Z,-10.60
2022-12-13T12:22:15.149Z,-10.50
2022-12-13T12:25:22.790Z,-10.50
2022-12-13T12:28:10.093Z,-10.40
2022-12-13T12:31:08.578Z,-10.40
2022-12-13T12:33:56.293Z,-10.40
2022-12-13T12:36:53.868Z,-10.40
2022-12-13T12:39:49.627Z,-10.30
2022-12-13T12:43:13.386Z,-10.30
2022-12-13T12:46:05.553Z,-10.30
2022-12-13T12:49:00.303Z,-10.30
2022-12-13T12:51:36.310Z,-10.20
2022-12-13T12:54:12.438Z,-10.10
2022-12-13T12:56:55.969Z,-10.20
2022-12-13T13:00:02.481Z,-10.10
2022-12-13T13:02:52.180Z,-10.00
2022-12-13T13:05:30.191Z,-10.00
2022-12-13T13:08:06.388Z,-10.00
2022-12-13T13:10:33.461Z,-9.90
2022-12-13T13:13:12.273Z,-9.90
2022-12-13T13:15:40.112Z,-9.80
2022-12-13T13:18:46.481Z,-9.90
2022-12-13T13:21:32.258Z,-9.90
2022-12-13T13:24:02.209Z,-9.80
2022-12-13T13:26:35.882Z,-9.90
2022-12-13T13:29:27.142Z,-9.90
2022-12-13T13:32:06.226Z,-9.90
2022-12-13T13:34:54.475Z,-9.90
2022-12-13T13:37:45.289Z,-9.90
2022-12-13T13:40:12.610Z,-9.90
2022-12-13T13:43:06.459Z,-9.90
2022-12-13T13:45:54.567Z,-9.90
2022-12-13T13:48:37.215Z,-9.90
2022-12-13T13:52:08.763Z,-9.80
2022-12-13T13:54:59.015Z,-9.90
2022-12-13T13:58:08.873Z,-9.90
2022-12-13T14:00:59.113Z,-9.90
2022-12-13T14:04:24.511Z,-9.90
2022-12-13T14:07:26.969Z,-9.90
2022-12-13T14:10:32.742Z,-9.90
2022-12-13T14:13:30.797Z,-9.90
2022-12-13T14:16:36.105Z,-9.90
2022-12-13T14:19:31.075Z,-9.90
2022-12-13T14:22:08.644Z,-9.90
2022-12-13T14:24:51.470Z,-9.90
2022-12-13T14:27:21.466Z,-9.90
2022-12-13T14:29:58.459Z,-9.90
2022-12-13T14:32:27.738Z,-9.90
2022-12-13T14:34:59.761Z,-9.90
2022-12-13T14:38:01.432Z,-9.90
2022-12-13T14:40:34.082Z,-9.90
2022-12-13T14:43:01.878Z,-9.90
2022-12-13T14:45:34.460Z,-10.00
2022-12-13T14:48:05.266Z,-10.00
2022-12-13T14:50:35.817Z,-10.00
2022-12-13T14:53:03.417Z,-10.00
2022-12-13T14:55:36.234Z,-9.90
2022-12-13T14:58:17.742Z,-9.90
2022-12-13T15:00:45.989Z,-9.90
2022-12-13T15:03:23.017Z,-9.90
2022-12-13T15:05:54.853Z,-9.90
2022-12-13T15:08:22.588Z,-9.90
2022-12-13T15:10:59.536Z,-9.90
2022-12-13T15:13:29.359Z,-10.00
2022-12-13T15:16:00.499Z,-10.00
2022-12-13T15:18:38.777Z,-10.00
2022-12-13T15:21:25.883Z,-10.00
2022-12-13T15:23:58.799Z,-10.00
2022-12-13T15:26:30.160Z,-10.00
2022-12-13T15:29:09.918Z,-9.90
2022-12-13T15:31:38.625Z,-9.90
2022-12-13T15:34:29.216Z,-9.90
2022-12-13T15:37:32.916Z,-10.00
2022-12-13T15:40:06.059Z,-10.00
2022-12-13T15:42:40.159Z,-10.00
2022-12-13T15:45:30.418Z,-9.90
2022-12-13T15:48:02.698Z,-9.90
2022-12-13T15:50:36.604Z,-9.90
2022-12-13T15:53:07.439Z,-9.90
2022-12-13T15:55:36.615Z,-9.90
2022-12-13T15:58:04.102Z,-9.80
2022-12-13T16:00:34.686Z,-9.80
2022-12-13T16:03:23.893Z,-9.90
2022-12-13T16:05:54.935Z,-9.80
2022-12-13T16:08:28.993Z,-9.80
2022-12-13T16:10:58.494Z,-9.90
2022-12-13T16:13:30.803Z,-9.90
2022-12-13T16:16:27.230Z,-9.80
2022-12-13T16:19:00.498Z,-9.80
2022-12-13T16:21:28.725Z,-9.90
2022-12-13T16:23:55.695Z,-9.90
2022-12-13T16:26:27.517Z,-9.90
2022-12-13T16:28:58.835Z,-9.90
2022-12-13T16:31:35.836Z,-9.90
2022-12-13T16:34:04.558Z,-9.90
2022-12-13T16:36:31.955Z,-9.90
2022-12-13T16:38:59.216Z,-9.80
2022-12-13T16:41:26.341Z,-9.90
2022-12-13T16:43:56.982Z,-9.90
2022-12-13T16:47:14.281Z,-9.90
2022-12-13T16:49:26.433Z,-9.90
2022-12-13T16:51:53.798Z,-9.90
2022-12-13T16:54:22.369Z,-9.90
2022-12-13T16:56:50.344Z,-9.90
2022-12-13T16:59:22.967Z,-9.90
2022-12-13T17:01:51.099Z,-9.90
2022-12-13T17:04:21.543Z,-9.90
2022-12-13T17:06:50.920Z,-9.90
2022-12-13T17:09:22.226Z,-10.00
2022-12-13T17:11:49.353Z,-10.00
2022-12-13T17:14:16.969Z,-10.00
2022-12-13T17:16:44.127Z,-9.90
2022-12-13T17:19:12.020Z,-9.90
2022-12-13T17:21:38.989Z,-9.90
2022-12-13T17:24:06.281Z,-9.90
2022-12-13T17:26:33.353Z,-9.90
2022-12-13T17:29:01.356Z,-9.90
2022-12-13T17:31:34.917Z,-9.90
2022-12-13T17:34:03.855Z,-9.90
2022-12-13T17:36:33.918Z,-9.90
2022-12-13T17:39:00.764Z,-9.80
2022-12-13T17:41:27.694Z,-9.80
2022-12-13T17:44:00.459Z,-9.80
2022-12-13T17:46:27.363Z,-9.70
2022-12-13T17:48:54.464Z,-9.70
2022-12-13T17:51:21.449Z,-9.80
2022-12-13T17:53:48.391Z,-9.70
2022-12-13T17:56:16.415Z,-9.70
2022-12-13T17:58:43.894Z,-9.70
2022-12-13T18:01:19.402Z,-9.60
2022-12-13T18:03:49.067Z,-9.60
2022-12-13T18:06:16.194Z,-9.60
2022-12-13T18:08:44.532Z,-9.70
2022-12-13T18:11:32.418Z,-9.70
2022-12-13T18:14:00.043Z,-9.70
2022-12-13T18:16:35.964Z,-9.70
2022-12-13T18:19:09.009Z,-9.60
2022-12-13T18:21:37.135Z,-9.60
2022-12-13T18:24:06.083Z,-9.60
2022-12-13T18:26:33.400Z,-9.60
2022-12-13T18:29:00.554Z,-9.60
2022-12-13T18:31:28.107Z,-9.70
2022-12-13T18:33:55.481Z,-9.60
2022-12-13T18:36:24.411Z,-9.60
2022-12-13T18:38:51.876Z,-9.60
2022-12-13T18:41:21.398Z,-9.70
2022-12-13T18:43:48.494Z,-9.70
2022-12-13T18:46:16.177Z,-9.70
2022-12-13T18:48:43.296Z,-9.70
2022-12-13T18:51:11.148Z,-9.70
2022-12-13T18:53:40.318Z,-9.60
2022-12-13T18:56:16.106Z,-9.60
2022-12-13T18:58:46.229Z,-9.60
2022-12-13T19:01:13.437Z,-9.60
2022-12-13T19:03:40.425Z,-9.70
2022-12-13T19:06:07.944Z,-9.60
2022-12-13T19:08:36.693Z,-9.50
2022-12-13T19:11:04.163Z,-9.50
2022-12-13T19:13:32.894Z,-9.50
2022-12-13T19:16:06.589Z,-9.50
2022-12-13T19:18:34.891Z,-9.50
2022-12-13T19:21:01.943Z,-9.50
2022-12-13T19:23:29.619Z,-9.50
2022-12-13T19:25:57.100Z,-9.50
2022-12-13T19:28:23.931Z,-9.50
2022-12-13T19:30:51.229Z,-9.50
2022-12-13T19:33:18.544Z,-9.40
2022-12-13T19:35:47.055Z,-9.50
2022-12-13T19:38:14.004Z,-9.50
2022-12-13T19:40:42.380Z,-9.50
2022-12-13T19:43:10.575Z,-9.40
2022-12-13T19:45:37.542Z,-9.50
2022-12-13T19:48:05.311Z,-9.40
2022-12-13T19:50:32.256Z,-9.40
2022-12-13T19:52:59.111Z,-9.40
2022-12-13T19:55:26.281Z,-9.40
2022-12-13T19:57:53.221Z,-9.40
2022-12-13T20:00:20.138Z,-9.50
2022-12-13T20:02:47.627Z,-9.40
2022-12-13T20:05:14.559Z,-9.40
2022-12-13T20:07:41.600Z,-9.40
2022-12-13T20:10:09.885Z,-9.40
2022-12-13T20:12:40.903Z,-9.40
2022-12-13T20:15:08.699Z,-9.40
2022-12-13T20:17:36.101Z,-9.40
2022-12-13T20:20:05.025Z,-9.30
2022-12-13T20:22:33.260Z,-9.30
2022-12-13T20:25:01.067Z,-9.20
2022-12-13T20:27:28.006Z,-9.20
2022-12-13T20:29:56.488Z,-9.30
2022-12-13T20:32:24.336Z,-9.30
2022-12-13T20:34:54.751Z,-9.30
2022-12-13T20:37:24.054Z,-9.30
2022-12-13T20:39:51.208Z,-9.30
2022-12-13T20:42:18.257Z,-9.30
2022-12-13T20:44:45.665Z,-9.20
2022-12-13T20:47:12.561Z,-9.10
2022-12-13T20:49:40.198Z,-9.20
2022-12-13T20:52:06.922Z,-9.20
2022-12-13T20:54:34.077Z,-9.20
2022-12-13T20:57:00.926Z,-9.30
2022-12-13T20:59:27.839Z,-9.30
2022-12-13T21:01:55.031Z,-9.30
2022-12-13T21:04:22.016Z,-9.20
2022-12-13T21:06:49.034Z,-9.20
2022-12-13T21:09:16.268Z,-9.20
2022-12-13T21:11:46.944Z,-9.20
2022-12-13T21:14:22.165Z,-9.30
2022-12-13T21:16:55.784Z,-9.20
2022-12-13T21:19:39.561Z,-9.20
2022-12-13T21:22:07.763Z,-9.20
2022-12-13T21:24:34.699Z,-9.20
2022-12-13T21:27:01.621Z,-9.20
2022-12-13T21:29:28.584Z,-9.20
2022-12-13T21:31:56.096Z,-9.20
2022-12-13T21:34:23.041Z,-9.20
2022-12-13T21:36:54.772Z,-9.20
2022-12-13T21:39:24.517Z,-9.30
2022-12-13T21:41:52.130Z,-9.30
2022-12-13T21:44:19.859Z,-9.20
2022-12-13T21:49:34.161Z,-9.10
2022-12-13T21:52:01.110Z,-9.10
2022-12-13T21:54:28.425Z,-9.10
2022-12-13T21:57:14.209Z,-9.10
2022-12-13T21:59:41.057Z,-9.10
2022-12-13T22:02:18.085Z,-9.00
2022-12-13T22:04:56.846Z,-9.00
2022-12-13T22:07:32.860Z,-9.00
2022-12-13T22:10:01.004Z,-9.00
2022-12-13T22:12:35.001Z,-9.00
2022-12-13T22:15:03.684Z,-9.00
2022-12-13T22:17:35.567Z,-9.00
2022-12-13T22:20:06.399Z,-9.00
2022-12-13T22:22:33.387Z,-9.10
2022-12-13T22:25:00.469Z,-9.10
2022-12-13T22:27:27.344Z,-9.10
2022-12-13T22:29:58.506Z,-9.10
2022-12-13T22:32:28.520Z,-9.10
2022-12-13T22:34:55.770Z,-9.10
2022-12-13T22:37:23.752Z,-9.10
2022-12-13T22:39:50.945Z,-9.00
2022-12-13T22:42:19.182Z,-9.00
2022-12-13T22:44:46.423Z,-9.00
2022-12-13T22:47:13.361Z,-8.90
2022-12-13T22:49:40.309Z,-8.90
2022-12-13T22:52:08.556Z,-9.00
2022-12-13T22:54:35.913Z,-9.00
2022-12-13T22:57:03.049Z,-8.90
2022-12-13T22:59:30.059Z,-8.90
